createdAt,value
2018-11-23T00:00:18.440Z,39.92
2018-11-23T00:02:47.940Z,39.78
2018-11-23T00:05:16.633Z,38.98
2018-11-23T00:07:45.616Z,39.65
2018-11-23T00:10:16.676Z,40.90
2018-11-23T00:12:45.558Z,41.13
2018-11-23T00:15:15.460Z,41.80
2018-11-23T00:17:44.163Z,39.58
2018-11-23T00:20:14.379Z,38.00
2018-11-23T00:22:43.072Z,40.65
2018-11-23T00:25:14.620Z,38.05
2018-11-23T00:27:43.312Z,37.95
2018-11-23T00:30:14.296Z,41.55
2018-11-23T00:32:43.320Z,39.20
2018-11-23T00:35:16.715Z,41.68
2018-11-23T00:37:45.816Z,43.42
2018-11-23T00:40:19.616Z,42.10
2018-11-23T00:42:48.449Z,40.28
2018-11-23T00:45:17.123Z,40.38
2018-11-23T00:47:46.696Z,41.85
2018-11-23T00:50:16.610Z,41.85
2018-11-23T00:52:45.817Z,42.00
2018-11-23T00:55:15.824Z,40.45
2018-11-23T00:57:44.521Z,42.20
2018-11-23T01:00:15.132Z,42.38
2018-11-23T01:02:44.165Z,42.75
2018-11-23T01:05:14.667Z,42.38
2018-11-23T01:07:43.989Z,44.42
2018-11-23T01:10:14.108Z,43.60
2018-11-23T01:12:43.789Z,43.00
2018-11-23T01:15:12.518Z,44.42
2018-11-23T01:17:41.207Z,43.33
2018-11-23T01:20:13.022Z,41.60
2018-11-23T01:22:42.006Z,42.73
2018-11-23T01:25:14.844Z,46.08
2018-11-23T01:27:44.407Z,45.38
2018-11-23T01:30:18.417Z,43.92
2018-11-23T01:32:47.292Z,45.63
2018-11-23T01:35:16.123Z,47.13
2018-11-23T01:37:44.829Z,43.38
2018-11-23T01:40:15.607Z,43.10
2018-11-23T01:42:44.617Z,44.38
2018-11-23T01:45:13.888Z,42.67
2018-11-23T01:47:42.695Z,42.48
2018-11-23T01:50:13.628Z,41.05
2018-11-23T01:52:43.024Z,40.88
2018-11-23T01:55:12.724Z,42.53
2018-11-23T01:57:41.937Z,43.23
2018-11-23T02:00:15.056Z,40.85
2018-11-23T02:02:44.133Z,42.27
2018-11-23T02:05:12.815Z,43.45
2018-11-23T02:07:41.505Z,41.33
2018-11-23T02:10:11.497Z,40.67
2018-11-23T02:12:40.187Z,43.00
2018-11-23T02:15:11.357Z,41.45
2018-11-23T02:17:40.072Z,43.33
2018-11-23T02:20:11.143Z,44.60
2018-11-23T02:22:39.853Z,42.43
2018-11-23T02:25:08.592Z,44.00
2018-11-23T02:27:37.292Z,41.08
2018-11-23T02:30:17.977Z,43.20
2018-11-23T02:32:46.695Z,44.50
2018-11-23T02:35:15.810Z,45.25
2018-11-23T02:37:44.507Z,42.05
2018-11-23T02:40:14.350Z,41.37
2018-11-23T02:42:43.077Z,41.80
2018-11-23T02:45:13.983Z,43.02
2018-11-23T02:47:43.276Z,42.05
2018-11-23T02:50:11.977Z,41.30
2018-11-23T02:52:41.360Z,41.55
2018-11-23T02:55:11.271Z,41.95
2018-11-23T02:57:39.995Z,42.13
2018-11-23T03:00:10.691Z,42.30
2018-11-23T03:02:39.490Z,44.75
2018-11-23T03:05:09.600Z,42.13
2018-11-23T03:07:38.390Z,43.42
2018-11-23T03:10:08.254Z,44.03
2018-11-23T03:12:36.948Z,43.78
2018-11-23T03:15:06.726Z,41.30
2018-11-23T03:17:35.412Z,43.38
2018-11-23T03:20:04.505Z,45.40
2018-11-23T03:22:33.198Z,43.75
2018-11-23T03:25:01.885Z,42.83
2018-11-23T03:27:30.569Z,42.67
2018-11-23T03:29:59.252Z,47.08
2018-11-23T03:32:28.045Z,46.90
2018-11-23T03:34:56.719Z,48.73
2018-11-23T03:37:25.424Z,47.10
2018-11-23T03:39:54.118Z,48.50
2018-11-23T03:42:22.824Z,42.88
2018-11-23T03:44:51.518Z,42.75
2018-11-23T03:47:20.199Z,42.38
2018-11-23T03:49:48.882Z,43.00
2018-11-23T03:52:17.604Z,41.63
2018-11-23T03:54:46.297Z,40.50
2018-11-23T03:57:14.981Z,43.33
2018-11-23T03:59:43.680Z,44.65
2018-11-23T04:02:12.362Z,42.88
2018-11-23T04:04:41.037Z,41.85
2018-11-23T04:07:09.747Z,41.73
2018-11-23T04:09:38.426Z,44.98
2018-11-23T04:12:07.110Z,42.45
2018-11-23T04:14:35.787Z,44.53
2018-11-23T04:17:04.745Z,42.78
2018-11-23T04:19:33.438Z,44.77
2018-11-23T04:22:02.119Z,43.87
2018-11-23T04:24:30.941Z,42.78
2018-11-23T04:26:59.660Z,46.75
2018-11-23T04:29:28.481Z,45.48
2018-11-23T04:31:57.384Z,44.67
2018-11-23T04:34:26.769Z,44.83
2018-11-23T04:36:55.773Z,52.23
2018-11-23T04:39:24.471Z,51.70
2018-11-23T04:41:53.157Z,50.12
2018-11-23T04:44:21.863Z,47.15
2018-11-23T04:46:50.717Z,46.08
2018-11-23T04:49:19.408Z,47.65
2018-11-23T04:51:48.113Z,53.68
2018-11-23T04:54:16.821Z,59.60
2018-11-23T04:56:45.512Z,48.38
2018-11-23T04:59:14.201Z,47.45
2018-11-23T05:01:42.903Z,50.50
2018-11-23T05:04:11.631Z,47.50
2018-11-23T05:06:40.310Z,49.40
2018-11-23T05:09:09.810Z,50.05
2018-11-23T05:11:39.006Z,46.33
2018-11-23T05:14:07.886Z,50.63
2018-11-23T05:16:36.566Z,52.50
2018-11-23T05:19:05.505Z,48.87
2018-11-23T05:21:34.353Z,54.10
2018-11-23T05:24:03.050Z,54.77
2018-11-23T05:26:31.737Z,49.25
2018-11-23T05:29:00.431Z,46.60
2018-11-23T05:31:29.128Z,47.73
2018-11-23T05:33:57.827Z,49.98
2018-11-23T05:36:26.512Z,44.98
2018-11-23T05:38:55.209Z,45.55
2018-11-23T05:41:23.960Z,48.23
2018-11-23T05:43:52.649Z,48.48
2018-11-23T05:46:21.622Z,47.23
2018-11-23T05:48:50.413Z,53.98
2018-11-23T05:51:19.121Z,46.68
2018-11-23T05:53:47.801Z,46.20
2018-11-23T05:56:16.562Z,44.98
2018-11-23T05:58:45.253Z,44.93
2018-11-23T06:01:13.936Z,45.50
2018-11-23T06:03:42.615Z,45.67
2018-11-23T06:06:11.281Z,44.23
2018-11-23T06:08:39.976Z,41.90
2018-11-23T06:11:08.660Z,41.55
2018-11-23T06:13:37.361Z,42.30
2018-11-23T06:16:06.034Z,41.85
2018-11-23T06:18:34.737Z,38.40
2018-11-23T06:21:03.410Z,39.50
2018-11-23T06:23:32.093Z,38.25
2018-11-23T06:26:12.900Z,40.12
2018-11-23T06:28:41.586Z,39.50
2018-11-23T06:31:10.539Z,37.63
2018-11-23T06:33:40.562Z,36.48
2018-11-23T06:36:09.229Z,32.70
2018-11-23T06:38:38.022Z,34.75
2018-11-23T06:41:10.540Z,35.17
2018-11-23T06:43:36.285Z,31.10
2018-11-23T06:46:06.638Z,29.70
2018-11-23T06:48:35.326Z,26.20
2018-11-23T06:51:04.245Z,27.62
2018-11-23T06:53:32.925Z,25.15
2018-11-23T06:56:02.201Z,23.52
2018-11-23T06:58:30.875Z,25.25
2018-11-23T07:00:59.737Z,24.30
2018-11-23T07:03:28.566Z,26.85
2018-11-23T07:05:57.887Z,24.37
2018-11-23T07:08:26.574Z,25.08
2018-11-23T07:10:58.793Z,24.65
2018-11-23T07:13:28.037Z,25.97
2018-11-23T07:15:56.756Z,26.97
2018-11-23T07:18:25.447Z,27.62
2018-11-23T07:20:54.125Z,25.82
2018-11-23T07:23:22.970Z,26.02
2018-11-23T07:25:51.681Z,23.83
2018-11-23T07:28:20.414Z,23.92
2018-11-23T07:30:49.104Z,22.82
2018-11-23T07:33:17.778Z,22.52
2018-11-23T07:35:46.469Z,21.82
2018-11-23T07:38:15.151Z,22.07
2018-11-23T07:40:55.743Z,20.77
2018-11-23T07:43:24.422Z,22.22
2018-11-23T07:45:53.122Z,23.05
2018-11-23T07:48:21.817Z,22.20
2018-11-23T07:50:50.494Z,22.95
2018-11-23T07:53:19.174Z,21.82
2018-11-23T07:55:47.870Z,23.25
2018-11-23T07:58:16.573Z,23.60
2018-11-23T08:00:45.261Z,21.97
2018-11-23T08:03:13.938Z,21.12
2018-11-23T08:05:42.618Z,21.05
2018-11-23T08:08:11.285Z,22.32
2018-11-23T08:10:39.279Z,22.02
2018-11-23T08:13:07.963Z,21.12
2018-11-23T08:15:36.661Z,22.10
2018-11-23T08:18:05.459Z,22.27
2018-11-23T08:20:34.133Z,20.55
2018-11-23T08:23:02.904Z,21.75
2018-11-23T08:25:31.566Z,21.50
2018-11-23T08:28:00.242Z,20.88
2018-11-23T08:30:29.961Z,19.20
2018-11-23T08:32:58.938Z,20.65
2018-11-23T08:35:27.642Z,20.92
2018-11-23T08:37:56.313Z,21.50
2018-11-23T08:40:26.330Z,21.27
2018-11-23T08:42:55.625Z,21.17
2018-11-23T08:45:25.446Z,21.00
2018-11-23T08:47:54.122Z,20.62
2018-11-23T08:50:25.271Z,21.50
2018-11-23T08:52:54.086Z,20.40
2018-11-23T08:55:23.050Z,21.68
2018-11-23T08:57:51.712Z,20.92
2018-11-23T09:00:21.761Z,21.20
2018-11-23T09:02:51.765Z,20.70
2018-11-23T09:05:20.444Z,20.90
2018-11-23T09:07:50.508Z,21.12
2018-11-23T09:10:20.809Z,21.23
2018-11-23T09:12:53.937Z,20.52
2018-11-23T09:15:22.774Z,22.20
2018-11-23T09:17:51.430Z,19.82
2018-11-23T09:20:20.473Z,22.22
2018-11-23T09:22:49.133Z,21.95
2018-11-23T09:25:21.094Z,20.25
2018-11-23T09:27:49.802Z,21.15
2018-11-23T09:30:25.947Z,21.57
2018-11-23T09:32:55.427Z,20.20
2018-11-23T09:35:24.236Z,20.60
2018-11-23T09:37:53.115Z,20.82
2018-11-23T09:40:23.138Z,21.33
2018-11-23T09:42:52.125Z,19.90
2018-11-23T09:45:22.044Z,20.48
2018-11-23T09:47:52.057Z,20.70
2018-11-23T09:50:21.811Z,20.80
2018-11-23T09:52:51.782Z,20.15
2018-11-23T09:55:21.193Z,20.30
2018-11-23T09:57:49.869Z,21.68
2018-11-23T10:00:20.910Z,20.82
2018-11-23T10:02:50.617Z,19.55
2018-11-23T10:05:19.616Z,20.88
2018-11-23T10:07:49.833Z,18.27
2018-11-23T10:10:19.329Z,20.43
2018-11-23T10:12:48.049Z,20.52
2018-11-23T10:15:17.629Z,19.67
2018-11-23T10:17:46.300Z,18.62
2018-11-23T10:20:16.949Z,20.27
2018-11-23T10:22:45.933Z,20.52
2018-11-23T10:25:16.053Z,20.32
2018-11-23T10:27:45.044Z,18.77
2018-11-23T10:30:17.012Z,17.77
2018-11-23T10:32:46.547Z,18.50
2018-11-23T10:35:15.290Z,17.67
2018-11-23T10:37:44.832Z,18.52
2018-11-23T10:40:16.583Z,16.82
2018-11-23T10:42:45.467Z,16.62
2018-11-23T10:45:16.086Z,15.90
2018-11-23T10:47:44.982Z,16.73
2018-11-23T10:50:15.469Z,18.25
2018-11-23T10:52:44.285Z,18.15
2018-11-23T10:55:15.433Z,17.75
2018-11-23T10:57:44.125Z,18.32
2018-11-23T11:00:20.566Z,16.70
2018-11-23T11:02:55.485Z,15.85
2018-11-23T11:05:29.642Z,17.37
2018-11-23T11:08:01.531Z,16.20
2018-11-23T11:10:30.222Z,14.40
2018-11-23T11:12:58.898Z,14.15
2018-11-23T11:15:27.576Z,14.90
2018-11-23T11:17:56.242Z,14.23
2018-11-23T11:20:24.929Z,15.75
2018-11-23T11:22:53.590Z,14.50
2018-11-23T11:25:22.313Z,14.78
2018-11-23T11:27:50.981Z,12.78
2018-11-23T11:30:19.873Z,14.93
2018-11-23T11:32:49.049Z,16.42
2018-11-23T11:35:17.730Z,15.03
2018-11-23T11:37:46.421Z,15.00
2018-11-23T11:40:16.646Z,15.48
2018-11-23T11:42:45.533Z,15.60
2018-11-23T11:45:15.557Z,16.80
2018-11-23T11:47:44.845Z,15.48
2018-11-23T11:50:13.948Z,16.67
2018-11-23T11:52:43.861Z,16.10
2018-11-23T11:55:15.299Z,16.35
2018-11-23T11:57:44.550Z,16.32
2018-11-23T12:00:15.360Z,16.57
2018-11-23T12:02:44.031Z,14.83
2018-11-23T12:05:13.332Z,15.70
2018-11-23T12:07:42.006Z,14.85
2018-11-23T12:10:13.377Z,16.35
2018-11-23T12:12:42.074Z,14.98
2018-11-23T12:15:11.754Z,15.58
2018-11-23T12:17:40.948Z,16.23
2018-11-23T12:20:14.030Z,16.45
2018-11-23T12:22:42.924Z,16.45
2018-11-23T12:25:11.863Z,15.78
2018-11-23T12:27:40.526Z,16.93
2018-11-23T12:30:12.041Z,16.80
2018-11-23T12:32:41.213Z,15.63
2018-11-23T12:35:11.382Z,16.73
2018-11-23T12:37:40.368Z,16.32
2018-11-23T12:40:10.889Z,17.65
2018-11-23T12:42:39.781Z,17.65
2018-11-23T12:45:10.413Z,17.30
2018-11-23T12:47:39.193Z,16.77
2018-11-23T12:50:10.774Z,16.35
2018-11-23T12:52:39.517Z,17.40
2018-11-23T12:55:08.730Z,17.52
2018-11-23T12:57:37.405Z,18.15
2018-11-23T13:00:09.502Z,17.73
2018-11-23T13:02:38.173Z,17.87
2018-11-23T13:05:06.873Z,18.25
2018-11-23T13:07:35.546Z,18.10
2018-11-23T13:10:04.452Z,18.23
2018-11-23T13:12:33.130Z,18.85
2018-11-23T13:15:01.797Z,19.12
2018-11-23T13:17:30.477Z,17.65
2018-11-23T13:19:59.172Z,18.48
2018-11-23T13:22:27.841Z,17.02
2018-11-23T13:24:56.497Z,17.23
2018-11-23T13:27:25.229Z,15.95
2018-11-23T13:29:53.922Z,17.35
2018-11-23T13:32:22.583Z,17.92
2018-11-23T13:34:51.238Z,17.23
2018-11-23T13:37:19.909Z,18.20
2018-11-23T13:39:48.678Z,18.70
2018-11-23T13:42:17.325Z,19.20
2018-11-23T13:44:46.047Z,17.82
2018-11-23T13:47:14.701Z,19.87
2018-11-23T13:49:43.374Z,17.82
2018-11-23T13:52:12.042Z,17.45
2018-11-23T13:54:40.707Z,17.90
2018-11-23T13:57:09.385Z,23.12
2018-11-23T13:59:38.073Z,53.63
2018-11-23T14:02:06.749Z,101.20
2018-11-23T14:04:35.412Z,19.40
2018-11-23T14:07:04.625Z,18.12
2018-11-23T14:09:33.289Z,18.10
2018-11-23T14:12:01.970Z,19.65
2018-11-23T14:14:30.637Z,17.70
2018-11-23T14:16:59.322Z,18.25
2018-11-23T14:19:28.019Z,18.05
2018-11-23T14:21:56.738Z,18.98
2018-11-23T14:24:25.442Z,17.57
2018-11-23T14:26:54.966Z,18.25
2018-11-23T14:29:23.633Z,17.98
2018-11-23T14:31:52.313Z,18.35
2018-11-23T14:34:20.978Z,18.15
2018-11-23T14:36:49.650Z,18.40
2018-11-23T14:39:18.348Z,17.87
2018-11-23T14:41:47.106Z,20.23
2018-11-23T14:44:15.985Z,19.17
2018-11-23T14:46:44.665Z,19.10
2018-11-23T14:49:13.333Z,18.92
2018-11-23T14:51:42.029Z,18.23
2018-11-23T14:54:10.693Z,18.42
2018-11-23T14:56:39.637Z,17.07
2018-11-23T14:59:08.318Z,18.05
2018-11-23T15:01:37.001Z,17.35
2018-11-23T15:04:05.754Z,16.50
2018-11-23T15:06:34.365Z,17.55
2018-11-23T15:09:03.076Z,16.67
2018-11-23T15:11:31.753Z,16.37
2018-11-23T15:14:00.426Z,17.27
2018-11-23T15:16:29.096Z,18.73
2018-11-23T15:18:57.762Z,17.35
2018-11-23T15:21:26.478Z,18.05
2018-11-23T15:23:55.146Z,17.73
2018-11-23T15:26:23.813Z,17.35
2018-11-23T15:28:52.502Z,16.77
2018-11-23T15:31:21.262Z,16.25
2018-11-23T15:33:50.029Z,16.55
2018-11-23T15:36:18.705Z,17.80
2018-11-23T15:38:47.358Z,16.87
2018-11-23T15:41:16.022Z,16.32
2018-11-23T15:43:44.705Z,17.23
2018-11-23T15:46:13.393Z,16.15
2018-11-23T15:48:42.053Z,16.73
2018-11-23T15:51:11.205Z,18.70
2018-11-23T15:53:39.927Z,18.02
2018-11-23T15:56:08.570Z,18.00
2018-11-23T15:58:37.235Z,17.85
2018-11-23T16:01:05.955Z,17.87
2018-11-23T16:03:34.618Z,18.12
2018-11-23T16:06:03.320Z,17.90
2018-11-23T16:08:31.950Z,18.42
2018-11-23T16:11:00.618Z,17.27
2018-11-23T16:13:29.287Z,16.95
2018-11-23T16:15:57.950Z,19.90
2018-11-23T16:18:26.658Z,18.62
2018-11-23T16:20:55.342Z,16.32
2018-11-23T16:23:24.006Z,17.67
2018-11-23T16:25:52.896Z,17.05
2018-11-23T16:28:21.591Z,18.12
2018-11-23T16:30:51.085Z,18.85
2018-11-23T16:33:21.213Z,16.70
2018-11-23T16:35:50.113Z,16.15
2018-11-23T16:38:20.431Z,17.35
2018-11-23T16:40:50.761Z,16.85
2018-11-23T16:43:19.437Z,14.98
2018-11-23T16:45:48.416Z,16.00
2018-11-23T16:48:17.933Z,16.17
2018-11-23T16:50:46.717Z,16.45
2018-11-23T16:53:15.385Z,16.85
2018-11-23T16:55:44.116Z,15.50
2018-11-23T16:58:13.590Z,16.73
2018-11-23T17:00:43.605Z,18.62
2018-11-23T17:03:13.834Z,21.90
2018-11-23T17:05:46.876Z,25.05
2018-11-23T17:08:15.543Z,23.62
2018-11-23T17:10:44.299Z,22.42
2018-11-23T17:13:12.967Z,20.85
2018-11-23T17:15:41.619Z,18.20
2018-11-23T17:18:10.448Z,17.27
2018-11-23T17:20:39.737Z,20.08
2018-11-23T17:23:09.358Z,27.25
2018-11-23T17:25:38.026Z,29.20
2018-11-23T17:28:07.953Z,28.20
2018-11-23T17:30:37.151Z,27.35
2018-11-23T17:33:05.829Z,24.60
2018-11-23T17:35:34.490Z,26.55
2018-11-23T17:38:03.213Z,26.77
2018-11-23T17:40:35.869Z,26.07
2018-11-23T17:43:04.573Z,33.30
2018-11-23T17:45:33.861Z,39.18
2018-11-23T17:48:02.758Z,27.50
2018-11-23T17:50:32.866Z,23.62
2018-11-23T17:53:01.665Z,23.40
2018-11-23T17:55:30.438Z,22.50
2018-11-23T17:57:59.345Z,24.37
2018-11-23T18:00:29.204Z,26.82
2018-11-23T18:02:58.661Z,30.70
2018-11-23T18:05:27.949Z,29.60
2018-11-23T18:07:56.961Z,30.97
2018-11-23T18:10:27.064Z,34.15
2018-11-23T18:12:56.507Z,31.73
2018-11-23T18:15:26.281Z,32.58
2018-11-23T18:17:55.873Z,32.33
2018-11-23T18:20:25.453Z,31.25
2018-11-23T18:22:54.986Z,30.43
2018-11-23T18:25:29.024Z,32.05
2018-11-23T18:28:00.933Z,33.73
2018-11-23T18:30:31.802Z,33.13
2018-11-23T18:33:01.631Z,31.30
2018-11-23T18:35:30.297Z,31.82
2018-11-23T18:37:58.966Z,29.30
2018-11-23T18:40:27.630Z,25.70
2018-11-23T18:42:56.297Z,26.33
2018-11-23T18:45:24.962Z,26.42
2018-11-23T18:47:53.717Z,26.85
2018-11-23T18:50:22.414Z,24.90
2018-11-23T18:52:51.094Z,24.30
2018-11-23T18:55:19.759Z,30.60
2018-11-23T18:57:48.467Z,32.28
2018-11-23T19:00:17.165Z,26.97
2018-11-23T19:02:46.945Z,26.52
2018-11-23T19:05:16.799Z,27.75
2018-11-23T19:07:45.474Z,28.23
2018-11-23T19:10:14.578Z,27.65
2018-11-23T19:12:43.245Z,27.42
2018-11-23T19:15:14.098Z,25.85
2018-11-23T19:17:42.793Z,27.45
2018-11-23T19:20:17.711Z,28.60
2018-11-23T19:22:47.517Z,23.73
2018-11-23T19:25:16.255Z,24.40
2018-11-23T19:27:45.004Z,22.85
2018-11-23T19:30:15.020Z,24.18
2018-11-23T19:32:43.649Z,23.77
2018-11-23T19:35:12.415Z,22.20
2018-11-23T19:37:41.110Z,23.18
2018-11-23T19:40:11.115Z,31.15
2018-11-23T19:42:39.814Z,26.90
2018-11-23T20:03:02.322Z,29.95
2018-11-23T20:05:31.018Z,35.35
2018-11-23T20:07:59.752Z,26.15
2018-11-23T20:10:28.529Z,27.00
2018-11-23T20:12:57.800Z,26.77
2018-11-23T20:15:26.539Z,26.65
2018-11-23T20:17:55.263Z,24.20
2018-11-23T20:20:23.957Z,25.65
2018-11-23T20:22:52.692Z,25.48
2018-11-23T20:25:21.513Z,21.87
2018-11-23T20:27:51.354Z,21.17
2018-11-23T20:30:20.279Z,20.35
2018-11-23T20:32:49.032Z,21.75
2018-11-23T20:35:18.925Z,22.62
2018-11-23T20:37:47.630Z,23.77
2018-11-23T20:40:21.533Z,23.35
2018-11-23T20:42:50.269Z,21.85
2018-11-23T20:45:18.987Z,22.20
2018-11-23T20:47:47.711Z,22.62
2018-11-23T20:50:17.092Z,22.07
2018-11-23T20:52:45.802Z,22.00
2018-11-23T20:55:16.738Z,21.65
2018-11-23T20:57:45.487Z,21.37
2018-11-23T21:00:15.000Z,23.07
2018-11-23T21:02:44.082Z,20.55
2018-11-23T21:05:14.817Z,21.87
2018-11-23T21:07:43.483Z,20.65
2018-11-23T21:10:20.244Z,19.02
2018-11-23T21:12:46.739Z,21.17
2018-11-23T21:15:17.663Z,21.55
2018-11-23T21:17:46.350Z,20.75
2018-11-23T21:20:15.123Z,19.82
2018-11-23T21:22:43.782Z,20.32
2018-11-23T21:25:12.476Z,19.52
2018-11-23T21:27:41.134Z,16.50
2018-11-23T21:30:14.165Z,16.17
2018-11-23T21:32:42.847Z,17.27
2018-11-23T21:35:12.678Z,18.90
2018-11-23T21:37:41.590Z,17.90
2018-11-23T21:40:14.134Z,17.55
2018-11-23T21:42:42.803Z,19.40
2018-11-23T21:45:12.629Z,21.93
2018-11-23T21:47:41.307Z,26.85
2018-11-23T21:50:11.335Z,28.67
2018-11-23T21:52:40.002Z,25.60
2018-11-23T21:55:11.118Z,22.37
2018-11-23T21:57:39.780Z,22.98
2018-11-23T22:00:10.266Z,24.63
2018-11-23T22:02:38.933Z,21.65
2018-11-23T22:05:08.034Z,20.10
2018-11-23T22:07:36.841Z,20.80
2018-11-23T22:10:10.323Z,18.05
2018-11-23T22:12:38.985Z,19.40
2018-11-23T22:15:09.930Z,19.90
2018-11-23T22:17:38.758Z,19.07
2018-11-23T22:20:10.809Z,19.70
2018-11-23T22:22:39.586Z,19.80
2018-11-23T22:25:09.305Z,19.95
2018-11-23T22:27:37.974Z,17.65
2018-11-23T22:30:09.638Z,16.07
2018-11-23T22:32:38.310Z,17.73
2018-11-23T22:35:08.442Z,16.82
2018-11-23T22:37:37.253Z,18.37
2018-11-23T22:40:09.806Z,18.80
2018-11-23T22:42:38.594Z,18.42
2018-11-23T22:45:08.934Z,16.32
2018-11-23T22:47:37.614Z,19.92
2018-11-23T22:50:11.098Z,23.80
2018-11-23T22:52:39.765Z,29.80
2018-11-23T22:55:09.607Z,26.97
2018-11-23T22:57:38.429Z,21.00
2018-11-23T23:00:11.139Z,20.97
2018-11-23T23:02:39.812Z,20.82
2018-11-23T23:05:08.476Z,22.60
2018-11-23T23:07:37.141Z,22.17
2018-11-23T23:10:06.419Z,22.22
2018-11-23T23:12:35.156Z,22.05
2018-11-23T23:15:03.833Z,22.62
2018-11-23T23:17:32.509Z,22.48
2018-11-23T23:20:01.186Z,19.55
2018-11-23T23:22:29.866Z,18.67
2018-11-23T23:24:58.530Z,20.17
2018-11-23T23:27:27.222Z,21.97
2018-11-23T23:29:55.890Z,19.70
2018-11-23T23:32:24.575Z,18.75
2018-11-23T23:34:53.258Z,19.77
2018-11-23T23:37:21.932Z,18.00
2018-11-23T23:39:50.610Z,17.65
2018-11-23T23:42:19.298Z,16.87
2018-11-23T23:44:47.979Z,17.27
2018-11-23T23:47:16.672Z,15.72
2018-11-23T23:49:45.337Z,14.23
2018-11-23T23:52:14.010Z,15.18
2018-11-23T23:54:42.693Z,14.75
2018-11-23T23:57:11.369Z,14.75
2018-11-23T23:59:40.030Z,15.88
